Time;durP1;ratioP1;P1;durP2;ratioP2;P2;SDS_P1;SDS_P2;PMS_P1;PMS_P2;Temp;Humidity;BMP_temperature;BMP_pressure;BME280_temperature;BME280_humidity;BME280_pressure;Samples;Min_cycle;Max_cycle;Signal;HPM_P1;HPM_P2
2021/08/12 00:01:28;;;;;;;2.65;2.20;;;12.60;99.90;;;;;;5006658;28;20199;-78
2021/08/12 00:03:54;;;;;;;2.50;2.30;;;12.40;99.90;;;;;;5005419;28;20195;-78
2021/08/12 00:06:19;;;;;;;2.90;2.50;;;12.30;99.90;;;;;;5004519;28;20220;-78
2021/08/12 00:08:45;;;;;;;2.67;2.33;;;12.30;99.90;;;;;;5002678;28;20216;-79
2021/08/12 00:11:11;;;;;;;2.97;2.42;;;12.30;99.90;;;;;;4996206;28;20674;-78
2021/08/12 00:13:36;;;;;;;4.53;2.63;;;12.30;99.90;;;;;;4995371;28;20223;-79
2021/08/12 00:16:05;;;;;;;3.90;2.75;;;12.30;99.90;;;;;;4995721;28;20788;-78
2021/08/12 00:18:32;;;;;;;3.08;2.55;;;12.20;99.90;;;;;;4994969;28;20212;-79
2021/08/12 00:20:58;;;;;;;3.90;3.00;;;12.20;99.90;;;;;;4993680;28;20196;-79
2021/08/12 00:23:26;;;;;;;3.38;2.72;;;12.20;99.90;;;;;;4994334;28;20215;-79
2021/08/12 00:25:53;;;;;;;3.50;2.70;;;12.30;99.90;;;;;;4993514;28;20180;-78
2021/08/12 00:28:19;;;;;;;3.13;2.58;;;12.30;99.90;;;;;;4992054;28;20355;-78
2021/08/12 00:30:44;;;;;;;2.70;2.42;;;12.30;99.90;;;;;;4992941;28;20244;-78
2021/08/12 00:33:10;;;;;;;2.83;2.20;;;12.20;99.90;;;;;;4992979;28;20219;-78
2021/08/12 00:35:35;;;;;;;3.08;2.40;;;12.30;99.90;;;;;;4992115;28;20188;-78
2021/08/12 00:38:01;;;;;;;4.10;2.90;;;12.40;99.90;;;;;;4993738;28;20209;-79
2021/08/12 00:40:29;;;;;;;4.38;2.83;;;12.50;99.90;;;;;;4993588;28;20752;-78
2021/08/12 00:42:55;;;;;;;3.45;2.65;;;12.40;99.90;;;;;;4993098;28;20199;-79
2021/08/12 00:45:20;;;;;;;2.60;2.13;;;12.50;99.90;;;;;;4990995;28;20184;-78
2021/08/12 00:47:46;;;;;;;3.58;2.40;;;12.60;99.90;;;;;;5000816;28;20278;-79
2021/08/12 00:50:11;;;;;;;4.00;2.67;;;12.60;99.90;;;;;;4990897;28;20708;-78
2021/08/12 00:52:37;;;;;;;2.80;2.45;;;12.60;99.90;;;;;;4993114;28;20640;-78
2021/08/12 00:55:05;;;;;;;2.85;2.25;;;12.70;99.90;;;;;;4992368;28;20239;-79
2021/08/12 00:57:32;;;;;;;2.78;2.47;;;12.70;99.90;;;;;;4990994;28;20200;-78
2021/08/12 00:59:58;;;;;;;3.28;2.22;;;12.60;99.90;;;;;;4992173;28;21286;-78
2021/08/12 01:02:23;;;;;;;3.17;2.80;;;12.70;99.90;;;;;;4992601;28;20192;-79
2021/08/12 01:04:50;;;;;;;3.65;2.42;;;12.70;99.90;;;;;;4991636;28;20741;-77
2021/08/12 01:07:24;;;;;;;3.53;2.80;;;12.70;99.90;;;;;;4992647;28;20604;-79
2021/08/12 01:10:16;;;;;;;3.13;2.08;;;12.70;99.90;;;;;;4991982;28;20192;-78
2021/08/12 01:12:56;;;;;;;3.95;3.13;;;12.70;99.90;;;;;;4991728;28;20550;-78
2021/08/12 01:15:31;;;;;;;4.40;3.60;;;12.70;99.90;;;;;;4990418;28;20208;-78
2021/08/12 01:18:19;;;;;;;4.60;3.85;;;12.80;99.90;;;;;;4990698;28;20273;-78
2021/08/12 01:21:05;;;;;;;6.50;4.03;;;12.80;99.90;;;;;;4990919;28;20294;-78
2021/08/12 01:23:31;;;;;;;5.47;3.55;;;12.80;99.90;;;;;;4991869;28;20176;-79
2021/08/12 01:26:00;;;;;;;4.97;4.05;;;12.90;99.90;;;;;;4991729;28;20227;-79
2021/08/12 01:28:28;;;;;;;4.35;3.47;;;12.90;99.90;;;;;;4991876;28;20219;-78
2021/08/12 01:31:24;;;;;;;7.63;4.47;;;12.90;99.90;;;;;;4991117;28;20267;-79
2021/08/12 01:34:07;;;;;;;4.82;3.83;;;12.90;99.90;;;;;;4990676;28;20196;-78
2021/08/12 01:36:34;;;;;;;4.40;3.67;;;12.90;99.90;;;;;;4991934;28;20173;-79
2021/08/12 01:39:02;;;;;;;6.38;4.45;;;12.90;99.90;;;;;;4991699;28;20235;-78
2021/08/12 01:41:29;;;;;;;5.35;4.07;;;12.90;99.90;;;;;;4991653;28;20246;-78
2021/08/12 01:43:57;;;;;;;5.78;3.72;;;12.90;99.90;;;;;;4990684;28;20195;-79
2021/08/12 01:46:25;;;;;;;6.20;4.22;;;12.90;99.90;;;;;;4991364;28;20255;-78
2021/08/12 01:48:53;;;;;;;4.50;3.72;;;12.90;99.90;;;;;;4991340;28;20740;-78
2021/08/12 01:51:21;;;;;;;5.95;4.20;;;12.80;99.90;;;;;;4991626;28;20635;-78
2021/08/12 01:53:48;;;;;;;4.18;3.47;;;12.90;99.90;;;;;;4989397;28;20578;-79
2021/08/12 01:56:15;;;;;;;5.43;3.85;;;12.90;99.90;;;;;;4990986;28;20189;-78
2021/08/12 01:58:43;;;;;;;4.88;3.80;;;12.90;99.90;;;;;;4991238;28;20196;-78
2021/08/12 02:01:09;;;;;;;5.13;4.18;;;12.80;99.90;;;;;;4990926;28;20191;-78
2021/08/12 02:03:35;;;;;;;5.20;3.95;;;12.80;99.90;;;;;;4990539;28;20675;-77
2021/08/12 02:06:02;;;;;;;5.20;4.07;;;12.80;99.90;;;;;;4990181;28;20726;-76
2021/08/12 02:08:27;;;;;;;5.40;3.83;;;12.70;99.90;;;;;;4987866;28;20235;-77
2021/08/12 02:10:53;;;;;;;6.55;3.85;;;12.70;99.90;;;;;;4988409;28;20215;-78
2021/08/12 02:13:19;;;;;;;6.05;3.70;;;12.70;99.90;;;;;;4985943;28;20200;-79
2021/08/12 02:15:45;;;;;;;4.28;3.47;;;12.70;99.90;;;;;;4988127;28;20188;-78
2021/08/12 02:18:10;;;;;;;3.97;3.00;;;12.70;99.90;;;;;;4990578;28;20701;-79
2021/08/12 02:20:38;;;;;;;3.78;3.17;;;12.60;99.90;;;;;;4992152;28;20550;-78
2021/08/12 02:23:07;;;;;;;4.05;3.00;;;12.50;99.90;;;;;;4990980;28;20628;-78
2021/08/12 02:25:56;;;;;;;3.58;3.03;;;12.40;99.90;;;;;;4990421;28;20192;-79
2021/08/12 02:28:23;;;;;;;4.30;2.92;;;12.40;99.90;;;;;;4990634;28;20200;-77
2021/08/12 02:30:52;;;;;;;3.45;3.00;;;12.40;99.90;;;;;;4990708;28;20212;-79
2021/08/12 02:33:23;;;;;;;3.72;2.92;;;12.30;99.90;;;;;;4988389;28;20251;-78
2021/08/12 02:35:49;;;;;;;5.15;3.10;;;12.30;99.90;;;;;;4990590;28;20180;-78
2021/08/12 02:38:16;;;;;;;3.85;2.85;;;12.30;99.90;;;;;;4990159;28;20274;-78
2021/08/12 02:40:44;;;;;;;4.82;2.53;;;12.30;99.90;;;;;;4989967;28;20187;-79
2021/08/12 02:43:10;;;;;;;4.10;2.70;;;12.30;99.90;;;;;;4989783;28;20989;-78
2021/08/12 02:45:37;;;;;;;3.08;2.67;;;12.30;99.90;;;;;;4990108;28;20202;-79
2021/08/12 02:48:07;;;;;;;4.68;3.22;;;12.30;99.90;;;;;;4990268;28;20204;-78
2021/08/12 02:50:35;;;;;;;3.65;2.47;;;12.20;99.90;;;;;;4990313;28;20275;-78
2021/08/12 02:53:01;;;;;;;3.80;3.00;;;12.20;99.90;;;;;;4989969;28;20649;-78
2021/08/12 02:55:28;;;;;;;3.22;2.78;;;12.20;99.90;;;;;;4988632;28;20219;-78
2021/08/12 02:57:54;;;;;;;3.88;3.15;;;12.20;99.90;;;;;;4990324;28;20200;-78
2021/08/12 03:00:19;;;;;;;4.50;2.75;;;12.30;99.90;;;;;;4996719;28;20195;-79
2021/08/12 03:02:47;;;;;;;5.07;3.10;;;12.30;99.90;;;;;;4990184;28;20188;-78
2021/08/12 03:05:14;;;;;;;4.35;3.22;;;12.20;99.90;;;;;;4990061;28;20192;-77
2021/08/12 03:07:44;;;;;;;4.70;3.42;;;12.20;99.90;;;;;;4988604;28;20236;-79
2021/08/12 03:10:11;;;;;;;4.03;3.30;;;12.20;99.90;;;;;;4989356;28;20212;-78
2021/08/12 03:12:38;;;;;;;4.10;3.10;;;12.20;99.90;;;;;;4989980;28;21195;-78
2021/08/12 03:15:05;;;;;;;4.57;3.10;;;12.20;99.90;;;;;;4990665;28;20180;-77
2021/08/12 03:17:30;;;;;;;3.30;2.90;;;12.20;99.90;;;;;;4989551;28;20682;-78
2021/08/12 03:19:56;;;;;;;5.55;3.63;;;12.20;99.90;;;;;;4987816;28;20287;-79
2021/08/12 03:22:24;;;;;;;4.15;3.25;;;12.20;99.90;;;;;;4989783;28;20176;-78
2021/08/12 03:24:51;;;;;;;3.75;3.30;;;12.10;99.90;;;;;;4989489;28;20188;-78
2021/08/12 03:27:17;;;;;;;5.82;4.05;;;12.10;99.90;;;;;;4989698;28;20196;-78
2021/08/12 03:29:46;;;;;;;5.05;3.92;;;12.10;99.90;;;;;;4989099;28;20592;-79
2021/08/12 03:32:11;;;;;;;4.95;3.38;;;12.10;99.90;;;;;;4989628;28;20211;-80
2021/08/12 03:34:38;;;;;;;3.97;3.58;;;12.10;99.90;;;;;;4988652;28;20636;-81
2021/08/12 03:37:05;;;;;;;5.50;3.88;;;12.00;99.90;;;;;;4987329;28;20200;-81
2021/08/12 03:39:31;;;;;;;5.65;4.38;;;12.10;99.90;;;;;;5003155;28;20535;-80
2021/08/12 03:41:58;;;;;;;4.57;3.88;;;12.00;99.90;;;;;;4987705;28;20184;-81
2021/08/12 03:44:24;;;;;;;5.18;4.28;;;12.00;99.90;;;;;;4992260;28;20616;-82
2021/08/12 03:46:49;;;;;;;5.80;3.90;;;12.00;99.90;;;;;;4993011;28;20208;-81
2021/08/12 03:49:15;;;;;;;5.35;4.28;;;11.90;99.90;;;;;;4991997;28;20196;-81
2021/08/12 03:51:41;;;;;;;5.65;4.03;;;11.90;99.90;;;;;;4990517;28;20231;-81
2021/08/12 03:54:06;;;;;;;5.35;4.43;;;11.90;99.90;;;;;;4991866;28;20634;-81
2021/08/12 03:56:32;;;;;;;9.80;4.63;;;11.90;99.90;;;;;;4990755;28;20195;-80
2021/08/12 03:58:58;;;;;;;4.68;3.70;;;11.90;99.90;;;;;;4990395;28;20342;-80
2021/08/12 04:01:23;;;;;;;5.68;4.18;;;11.90;99.90;;;;;;4990477;28;20714;-82
2021/08/12 04:03:49;;;;;;;4.82;4.32;;;12.00;99.90;;;;;;4982522;28;20188;-81
2021/08/12 04:06:15;;;;;;;5.70;3.95;;;12.00;99.90;;;;;;4990602;28;21051;-81
2021/08/12 04:08:41;;;;;;;4.38;3.83;;;12.10;99.90;;;;;;4990970;28;20224;-81
2021/08/12 04:11:06;;;;;;;4.85;3.70;;;12.10;99.90;;;;;;4991426;28;20180;-80
2021/08/12 04:13:32;;;;;;;5.70;3.92;;;12.10;99.90;;;;;;4991774;28;20778;-80
2021/08/12 04:15:58;;;;;;;4.55;4.10;;;12.10;99.90;;;;;;4990162;28;20183;-81
2021/08/12 04:18:24;;;;;;;4.20;3.67;;;12.20;99.90;;;;;;4991666;28;20207;-81
2021/08/12 04:20:50;;;;;;;4.68;4.05;;;12.30;99.90;;;;;;4990146;28;20291;-81
2021/08/12 04:23:16;;;;;;;4.10;3.67;;;12.30;99.90;;;;;;4990095;28;20299;-82
2021/08/12 04:25:41;;;;;;;4.82;3.92;;;12.40;99.90;;;;;;4991359;28;20622;-80
2021/08/12 04:28:07;;;;;;;11.93;4.82;;;12.50;99.90;;;;;;4990028;28;20218;-82
2021/08/12 04:30:33;;;;;;;6.47;4.88;;;12.50;99.90;;;;;;4991687;28;20184;-81
2021/08/12 04:32:59;;;;;;;6.18;4.85;;;12.60;99.90;;;;;;4990189;28;20211;-81
2021/08/12 04:35:25;;;;;;;5.45;4.50;;;12.60;99.90;;;;;;4991127;28;20373;-80
2021/08/12 04:37:51;;;;;;;5.07;4.57;;;12.60;99.90;;;;;;4989802;28;20200;-80
2021/08/12 04:40:19;;;;;;;6.95;4.63;;;12.60;99.90;;;;;;4989698;28;20618;-81
2021/08/12 04:42:47;;;;;;;6.32;4.43;;;12.70;99.90;;;;;;4991361;28;20212;-80
2021/08/12 04:45:14;;;;;;;6.50;4.80;;;12.70;99.90;;;;;;4989058;28;20210;-80
2021/08/12 04:47:40;;;;;;;7.32;5.22;;;12.80;99.90;;;;;;4987728;28;20212;-80
2021/08/12 04:50:07;;;;;;;8.30;5.63;;;12.70;99.90;;;;;;4990103;28;21087;-80
2021/08/12 04:52:33;;;;;;;5.72;4.78;;;12.70;99.90;;;;;;4987876;28;20287;-80
2021/08/12 04:54:59;;;;;;;6.20;5.15;;;12.70;99.90;;;;;;4986334;28;21185;-80
2021/08/12 04:57:25;;;;;;;7.45;5.22;;;12.80;99.90;;;;;;4989564;28;20196;-79
2021/08/12 04:59:51;;;;;;;5.75;5.15;;;12.80;99.90;;;;;;4988783;28;20181;-79
2021/08/12 05:02:17;;;;;;;7.47;5.75;;;12.70;99.90;;;;;;4989372;28;20190;-79
2021/08/12 05:04:42;;;;;;;6.70;5.07;;;12.80;99.90;;;;;;4991964;28;20191;-80
2021/08/12 05:07:08;;;;;;;8.02;5.75;;;12.80;99.90;;;;;;4988787;28;20586;-80
2021/08/12 05:09:34;;;;;;;5.90;5.38;;;13.00;99.90;;;;;;4987067;28;20188;-81
2021/08/12 05:12:00;;;;;;;8.70;5.05;;;13.50;99.90;;;;;;4987530;28;20200;-80
2021/08/12 05:14:26;;;;;;;5.93;4.22;;;14.10;99.90;;;;;;4986826;28;20222;-81
2021/08/12 05:16:52;;;;;;;7.65;4.80;;;15.00;99.90;;;;;;4988734;28;20208;-81
2021/08/12 05:19:17;;;;;;;5.55;4.00;;;15.90;99.90;;;;;;4987068;28;20218;-80
2021/08/12 05:21:43;;;;;;;4.78;3.95;;;16.60;99.90;;;;;;4992417;28;20191;-80
2021/08/12 05:24:09;;;;;;;4.47;4.00;;;17.20;99.90;;;;;;4988092;28;20183;-82
2021/08/12 05:26:35;;;;;;;4.95;3.90;;;17.50;99.90;;;;;;4987260;28;20184;-82
2021/08/12 05:29:00;;;;;;;4.32;3.58;;;17.60;99.90;;;;;;4986367;28;20275;-82
2021/08/12 05:31:26;;;;;;;4.35;3.72;;;17.50;99.90;;;;;;4987607;28;20215;-82
2021/08/12 05:33:52;;;;;;;5.53;4.30;;;17.70;99.90;;;;;;4989145;28;20222;-82
2021/08/12 05:36:17;;;;;;;5.25;3.88;;;18.00;99.90;;;;;;4990101;28;20564;-82
2021/08/12 05:38:43;;;;;;;3.72;3.25;;;18.40;99.90;;;;;;4990297;28;20208;-83
2021/08/12 05:41:09;;;;;;;4.13;3.72;;;18.80;99.90;;;;;;4988790;28;20195;-81
2021/08/12 05:43:34;;;;;;;3.78;3.13;;;19.10;99.90;;;;;;4990651;28;20195;-81
2021/08/12 05:46:00;;;;;;;3.80;3.20;;;19.70;99.90;;;;;;4989731;28;21039;-82
2021/08/12 05:48:25;;;;;;;3.53;3.22;;;20.30;99.90;;;;;;4988948;28;20706;-83
2021/08/12 05:50:51;;;;;;;4.13;3.40;;;20.40;99.90;;;;;;4988728;28;20188;-82
2021/08/12 05:53:18;;;;;;;3.50;3.20;;;20.60;99.90;;;;;;4988582;28;20306;-83
2021/08/12 05:55:44;;;;;;;3.40;2.85;;;20.60;99.90;;;;;;4989285;28;20187;-82
2021/08/12 05:58:09;;;;;;;3.20;2.90;;;20.60;99.90;;;;;;4988089;28;20204;-82
2021/08/12 06:00:35;;;;;;;4.90;2.70;;;20.70;99.90;;;;;;4989387;28;20918;-83
2021/08/12 06:03:05;;;;;;;4.75;2.90;;;21.00;99.90;;;;;;4989357;28;20196;-82
2021/08/12 06:05:31;;;;;;;3.13;2.75;;;21.00;99.90;;;;;;4987310;28;20243;-82
2021/08/12 06:07:56;;;;;;;3.58;2.92;;;21.20;99.90;;;;;;4987679;28;20216;-82
2021/08/12 06:10:22;;;;;;;3.45;2.90;;;21.30;99.90;;;;;;4987885;28;20195;-83
2021/08/12 06:12:48;;;;;;;4.05;3.33;;;21.60;99.90;;;;;;4988907;28;20215;-82
2021/08/12 06:15:13;;;;;;;3.38;2.40;;;21.80;99.90;;;;;;4987703;28;20192;-82
2021/08/12 06:17:39;;;;;;;4.63;2.80;;;21.80;99.90;;;;;;4987877;28;21052;-82
2021/08/12 06:20:05;;;;;;;2.83;2.45;;;21.60;99.90;;;;;;4987571;28;20203;-81
2021/08/12 06:22:30;;;;;;;3.70;2.72;;;21.60;99.90;;;;;;4989592;28;20203;-82
2021/08/12 06:24:56;;;;;;;2.88;2.58;;;21.40;99.90;;;;;;4987328;28;20188;-82
2021/08/12 06:27:21;;;;;;;2.55;2.35;;;21.40;99.90;;;;;;4989182;28;20227;-82
2021/08/12 06:29:47;;;;;;;4.07;2.65;;;21.30;99.90;;;;;;4987342;28;20184;-81
2021/08/12 06:32:13;;;;;;;2.45;2.25;;;21.40;99.90;;;;;;4989213;28;20189;-81
2021/08/12 06:34:38;;;;;;;3.10;2.75;;;21.70;99.90;;;;;;4988046;28;20211;-82
2021/08/12 06:37:04;;;;;;;3.72;2.85;;;22.00;99.90;;;;;;4983470;28;20208;-82
2021/08/12 06:39:30;;;;;;;2.50;2.30;;;22.00;99.90;;;;;;4985008;28;20552;-82
2021/08/12 06:41:56;;;;;;;3.92;2.97;;;22.20;99.90;;;;;;4986158;28;20188;-81
2021/08/12 06:44:21;;;;;;;3.05;2.40;;;22.20;99.90;;;;;;4987522;28;20184;-83
2021/08/12 06:46:47;;;;;;;2.60;2.40;;;22.20;99.90;;;;;;4987340;28;20208;-81
2021/08/12 06:49:13;;;;;;;2.88;2.15;;;22.00;99.90;;;;;;4986759;28;20196;-81
2021/08/12 06:51:38;;;;;;;3.22;2.05;;;21.90;99.90;;;;;;4988073;28;20192;-77
2021/08/12 06:54:04;;;;;;;2.47;2.10;;;21.80;99.90;;;;;;4987977;28;20622;-76
2021/08/12 06:56:30;;;;;;;2.03;1.65;;;21.60;99.90;;;;;;4986089;28;20238;-77
2021/08/12 06:58:56;;;;;;;3.65;2.60;;;21.50;99.90;;;;;;4985796;28;20275;-77
2021/08/12 07:01:22;;;;;;;2.28;1.90;;;21.50;99.90;;;;;;4984548;28;20187;-77
2021/08/12 07:03:47;;;;;;;2.95;1.88;;;21.50;99.90;;;;;;4985201;28;20372;-77
2021/08/12 07:06:13;;;;;;;2.63;1.80;;;21.60;99.90;;;;;;4986447;28;20195;-77
2021/08/12 07:08:39;;;;;;;1.95;1.75;;;21.70;99.90;;;;;;4985298;28;20200;-76
2021/08/12 07:11:05;;;;;;;2.97;2.25;;;21.70;99.90;;;;;;4985976;28;20246;-77
2021/08/12 07:13:31;;;;;;;2.30;2.00;;;21.80;99.90;;;;;;4985425;28;20219;-78
2021/08/12 07:15:57;;;;;;;2.38;2.17;;;21.90;99.90;;;;;;4985938;28;20188;-77
2021/08/12 07:18:22;;;;;;;2.70;2.17;;;21.90;99.90;;;;;;4985243;28;20209;-77
2021/08/12 07:20:49;;;;;;;3.38;1.88;;;22.00;99.90;;;;;;4984871;28;20200;-77
2021/08/12 07:23:14;;;;;;;3.17;2.03;;;22.00;99.90;;;;;;4985995;28;20215;-77
2021/08/12 07:25:40;;;;;;;4.13;2.85;;;21.90;99.90;;;;;;4986428;28;20881;-77
2021/08/12 07:28:05;;;;;;;2.30;1.98;;;22.00;99.90;;;;;;4986044;28;20207;-77
2021/08/12 07:30:31;;;;;;;2.40;2.20;;;21.90;99.90;;;;;;4983946;28;20199;-76
2021/08/12 07:32:57;;;;;;;3.33;2.40;;;22.00;99.90;;;;;;4983914;28;20362;-77
2021/08/12 07:35:22;;;;;;;2.30;1.83;;;22.20;99.90;;;;;;4983591;28;20253;-76
2021/08/12 07:37:49;;;;;;;3.63;2.20;;;22.40;99.90;;;;;;4985883;28;20204;-77
2021/08/12 07:40:15;;;;;;;2.60;2.40;;;22.60;99.90;;;;;;4984910;28;20178;-78
2021/08/12 07:42:40;;;;;;;2.83;2.45;;;22.90;99.90;;;;;;4985915;28;20188;-77
2021/08/12 07:45:06;;;;;;;2.97;2.53;;;23.10;99.90;;;;;;4985728;28;20662;-77
2021/08/12 07:47:32;;;;;;;3.78;2.65;;;23.30;99.90;;;;;;4986942;28;20216;-77
2021/08/12 07:49:59;;;;;;;3.08;2.80;;;23.30;99.90;;;;;;4986996;28;20184;-77
2021/08/12 07:52:24;;;;;;;3.78;2.95;;;23.40;99.90;;;;;;4986392;28;20530;-77
2021/08/12 07:54:50;;;;;;;4.55;2.47;;;23.60;99.90;;;;;;4985871;28;20194;-75
2021/08/12 07:57:16;;;;;;;2.90;2.60;;;23.90;99.90;;;;;;4986521;28;20204;-77
2021/08/12 07:59:42;;;;;;;3.10;2.80;;;24.30;99.90;;;;;;4986499;28;20564;-77
2021/08/12 08:02:07;;;;;;;2.90;2.50;;;24.40;99.90;;;;;;4985941;28;20189;-76
2021/08/12 08:04:33;;;;;;;4.85;2.60;;;24.40;99.90;;;;;;4986148;28;20252;-76
2021/08/12 08:07:00;;;;;;;3.08;2.65;;;24.60;99.90;;;;;;4985463;28;20212;-76
2021/08/12 08:09:25;;;;;;;3.00;2.50;;;24.70;99.90;;;;;;4987100;28;20436;-77
2021/08/12 08:11:51;;;;;;;3.33;2.47;;;24.90;99.90;;;;;;4984341;28;20279;-77
2021/08/12 08:14:17;;;;;;;3.17;2.88;;;25.10;99.90;;;;;;4973335;28;20212;-78
2021/08/12 08:16:43;;;;;;;3.08;2.63;;;25.30;99.90;;;;;;4984058;28;20180;-77
2021/08/12 08:19:09;;;;;;;3.50;2.65;;;25.40;99.90;;;;;;4984171;28;20200;-77
2021/08/12 08:21:35;;;;;;;2.78;2.55;;;25.50;99.90;;;;;;4986455;28;20195;-77
2021/08/12 08:24:01;;;;;;;3.28;2.97;;;25.40;99.90;;;;;;4984034;28;20280;-77
2021/08/12 08:26:27;;;;;;;3.47;2.85;;;25.20;99.90;;;;;;4983683;28;20283;-77
2021/08/12 08:28:52;;;;;;;3.10;2.80;;;25.00;99.90;;;;;;4984743;28;20235;-77
2021/08/12 08:31:18;;;;;;;3.08;2.78;;;24.90;99.90;;;;;;4989737;28;20276;-78
2021/08/12 08:33:43;;;;;;;3.10;2.80;;;24.90;99.90;;;;;;4989455;28;20208;-77
2021/08/12 08:36:09;;;;;;;5.05;2.60;;;24.90;99.90;;;;;;4988549;28;20334;-78
2021/08/12 08:38:35;;;;;;;3.08;2.70;;;24.70;99.90;;;;;;4988217;28;20208;-77
2021/08/12 08:41:01;;;;;;;3.08;2.78;;;24.90;99.90;;;;;;4988086;28;20223;-77
2021/08/12 08:43:30;;;;;;;3.53;2.90;;;25.30;99.90;;;;;;4987963;28;20303;-77
2021/08/12 08:45:58;;;;;;;4.38;2.67;;;25.50;99.90;;;;;;4988333;28;20196;-78
2021/08/12 08:48:25;;;;;;;3.20;2.45;;;25.80;99.90;;;;;;4990910;28;20311;-78
2021/08/12 08:50:51;;;;;;;3.85;2.97;;;25.70;99.90;;;;;;4988877;28;20230;-77
2021/08/12 08:53:18;;;;;;;3.53;2.53;;;25.90;99.90;;;;;;4990207;28;20285;-78
2021/08/12 08:55:45;;;;;;;4.13;2.30;;;25.90;99.90;;;;;;4989786;28;20191;-77
2021/08/12 08:58:11;;;;;;;2.85;2.42;;;26.00;99.90;;;;;;4990204;28;20219;-78
2021/08/12 09:00:38;;;;;;;3.30;2.67;;;26.10;99.90;;;;;;4990559;28;20188;-77
2021/08/12 09:03:03;;;;;;;2.88;2.58;;;26.20;99.90;;;;;;4988392;28;20276;-77
2021/08/12 09:05:29;;;;;;;3.17;2.88;;;26.30;99.90;;;;;;4989750;28;20752;-78
2021/08/12 09:07:55;;;;;;;2.55;2.35;;;26.60;99.90;;;;;;4988278;28;20222;-77
2021/08/12 09:10:21;;;;;;;2.95;2.58;;;26.80;99.90;;;;;;4990381;28;20196;-77
2021/08/12 09:12:48;;;;;;;4.03;2.30;;;26.90;99.90;;;;;;4991671;28;20239;-78
2021/08/12 09:15:20;;;;;;;3.92;2.85;;;26.80;99.90;;;;;;4988672;28;20195;-78
2021/08/12 09:17:46;;;;;;;2.97;2.53;;;26.80;99.90;;;;;;4991287;28;20200;-77
2021/08/12 09:20:16;;;;;;;2.45;1.95;;;27.10;99.90;;;;;;4990183;28;20623;-77
2021/08/12 09:22:49;;;;;;;2.92;2.47;;;27.20;99.90;;;;;;4989280;28;20200;-78
2021/08/12 09:25:15;;;;;;;3.28;2.45;;;27.50;99.90;;;;;;4987925;28;20260;-78
2021/08/12 09:27:41;;;;;;;2.92;2.17;;;27.60;99.90;;;;;;4990556;28;20212;-78
2021/08/12 09:30:14;;;;;;;2.55;2.25;;;27.40;99.90;;;;;;4990301;28;20295;-77
2021/08/12 09:32:50;;;;;;;2.65;2.17;;;27.50;99.90;;;;;;4990881;28;20204;-82
2021/08/12 09:35:23;;;;;;;2.83;2.40;;;27.40;99.90;;;;;;4988682;28;20257;-78
2021/08/12 09:37:49;;;;;;;2.40;2.20;;;27.40;99.10;;;;;;4989106;28;20219;-79
2021/08/12 09:40:15;;;;;;;2.28;2.08;;;27.50;99.00;;;;;;4983606;28;20651;-76
2021/08/12 09:43:01;;;;;;;2.47;2.28;;;27.50;99.90;;;;;;4985146;28;20614;-76
2021/08/12 09:45:28;;;;;;;2.67;2.00;;;27.70;99.90;;;;;;4984480;28;20195;-76
2021/08/12 09:47:55;;;;;;;2.75;2.10;;;27.90;99.10;;;;;;4985048;28;20705;-75
2021/08/12 09:50:31;;;;;;;3.15;2.20;;;27.70;97.80;;;;;;4984600;28;20462;-75
2021/08/12 09:52:57;;;;;;;4.43;2.28;;;27.70;99.10;;;;;;4984761;28;20196;-76
2021/08/12 09:55:24;;;;;;;3.80;2.30;;;27.70;99.40;;;;;;4984055;28;20306;-76
2021/08/12 09:57:51;;;;;;;3.20;2.47;;;27.70;99.80;;;;;;4984911;28;20655;-76
2021/08/12 10:00:38;;;;;;;2.28;1.92;;;28.10;99.40;;;;;;4984307;28;20238;-76
2021/08/12 10:03:29;;;;;;;2.58;2.00;;;28.50;99.40;;;;;;4984111;28;20573;-76
2021/08/12 10:05:58;;;;;;;3.05;2.03;;;28.90;96.30;;;;;;4982462;28;20211;-76
2021/08/12 10:08:29;;;;;;;2.50;2.15;;;29.10;96.80;;;;;;4984439;28;20207;-76
2021/08/12 10:10:57;;;;;;;2.42;2.20;;;29.60;96.30;;;;;;4982922;28;20231;-76
2021/08/12 10:13:22;;;;;;;2.70;2.22;;;30.10;94.70;;;;;;4984227;28;20208;-76
2021/08/12 10:15:49;;;;;;;2.63;2.40;;;29.70;93.30;;;;;;4983814;28;20192;-75
2021/08/12 10:18:19;;;;;;;3.58;2.15;;;29.60;93.40;;;;;;4984487;28;20294;-76
2021/08/12 10:20:46;;;;;;;2.60;1.88;;;29.80;93.90;;;;;;4983794;28;20204;-76
2021/08/12 10:23:12;;;;;;;2.63;2.13;;;29.90;93.60;;;;;;4984266;28;20223;-76
2021/08/12 10:25:40;;;;;;;2.70;2.35;;;29.50;92.90;;;;;;4983777;28;20558;-76
2021/08/12 10:28:08;;;;;;;2.75;2.00;;;29.40;92.50;;;;;;4984976;28;20208;-76
2021/08/12 10:30:34;;;;;;;3.67;2.55;;;29.10;93.30;;;;;;4989287;28;20843;-76
2021/08/12 10:33:03;;;;;;;3.22;2.28;;;28.80;93.20;;;;;;4982322;28;20746;-76
2021/08/12 10:35:30;;;;;;;2.92;2.28;;;28.90;93.70;;;;;;4983417;28;20651;-76
2021/08/12 10:37:57;;;;;;;1.95;1.73;;;29.10;92.60;;;;;;4984734;28;20203;-76
2021/08/12 10:40:28;;;;;;;2.20;2.00;;;28.90;91.70;;;;;;4984256;28;20283;-76
2021/08/12 10:42:55;;;;;;;2.17;1.88;;;28.80;92.70;;;;;;4984068;28;20184;-76
2021/08/12 10:45:22;;;;;;;2.38;2.03;;;28.60;93.80;;;;;;4983320;28;20235;-76
2021/08/12 10:47:55;;;;;;;2.58;2.25;;;28.50;96.70;;;;;;4983055;28;20216;-76
2021/08/12 10:50:26;;;;;;;2.30;2.05;;;28.50;93.50;;;;;;4983670;28;20192;-76
2021/08/12 10:53:10;;;;;;;3.17;2.03;;;28.50;93.60;;;;;;4983239;28;20235;-76
2021/08/12 10:56:06;;;;;;;2.03;1.83;;;28.50;94.00;;;;;;4983832;28;20643;-76
2021/08/12 10:58:32;;;;;;;2.10;1.90;;;28.90;94.20;;;;;;4985724;28;20208;-75
2021/08/12 11:01:07;;;;;;;2.53;1.92;;;29.20;93.00;;;;;;4986124;28;20180;-76
2021/08/12 11:03:32;;;;;;;3.05;2.17;;;29.10;92.10;;;;;;4983538;28;20225;-76
2021/08/12 11:06:04;;;;;;;3.25;2.13;;;29.20;92.90;;;;;;4983077;28;20222;-76
2021/08/12 11:08:53;;;;;;;2.55;2.00;;;29.40;93.30;;;;;;4983393;28;20262;-76
2021/08/12 11:11:21;;;;;;;2.70;2.20;;;29.70;91.70;;;;;;4983188;28;20701;-76
2021/08/12 11:13:51;;;;;;;2.30;1.75;;;29.60;91.30;;;;;;4983729;28;20322;-76
2021/08/12 11:16:17;;;;;;;3.78;2.50;;;29.70;91.40;;;;;;4983314;28;20274;-77
2021/08/12 11:18:55;;;;;;;2.50;2.20;;;30.00;92.00;;;;;;4988549;28;20211;-78
2021/08/12 11:21:30;;;;;;;2.00;1.80;;;30.10;90.10;;;;;;4989713;28;20703;-78
2021/08/12 11:24:00;;;;;;;1.90;1.73;;;30.10;90.30;;;;;;4988464;28;20187;-79
2021/08/12 11:26:47;;;;;;;2.33;1.90;;;30.10;89.80;;;;;;4990865;28;20207;-78
2021/08/12 11:29:32;;;;;;;2.20;1.80;;;29.80;88.90;;;;;;4986031;28;20239;-76
2021/08/12 11:32:04;;;;;;;4.05;1.70;;;29.70;90.40;;;;;;4986920;28;20180;-77
2021/08/12 11:34:52;;;;;;;2.40;1.90;;;30.00;88.80;;;;;;4986532;28;20220;-77
2021/08/12 11:37:21;;;;;;;1.73;1.63;;;30.40;89.00;;;;;;4986325;28;20204;-78
2021/08/12 11:39:47;;;;;;;2.42;1.83;;;30.80;84.40;;;;;;4986485;28;20681;-77
2021/08/12 11:42:25;;;;;;;2.00;1.63;;;30.70;86.50;;;;;;4985496;28;20192;-77
2021/08/12 11:44:52;;;;;;;4.13;1.85;;;30.10;85.00;;;;;;4985692;28;20225;-77
2021/08/12 11:47:19;;;;;;;2.42;2.00;;;29.90;85.80;;;;;;4985655;28;20204;-78
2021/08/12 11:49:53;;;;;;;2.25;1.52;;;29.80;86.90;;;;;;4983109;28;20192;-77
2021/08/12 11:52:26;;;;;;;2.22;1.85;;;29.90;88.00;;;;;;4983131;28;20560;-77
2021/08/12 11:54:57;;;;;;;2.42;1.80;;;30.20;86.80;;;;;;4981235;28;20223;-77
2021/08/12 11:57:41;;;;;;;2.50;1.95;;;30.50;85.30;;;;;;4981349;28;20437;-77
2021/08/12 12:00:15;;;;;;;2.67;2.13;;;31.00;83.50;;;;;;4981530;28;20180;-77
2021/08/12 12:02:47;;;;;;;2.63;1.80;;;31.00;82.60;;;;;;4981725;28;20481;-77
2021/08/12 12:05:14;;;;;;;2.30;1.90;;;31.10;81.90;;;;;;4983358;28;20188;-77
2021/08/12 12:07:54;;;;;;;2.72;1.67;;;31.30;82.10;;;;;;4987064;28;20212;-77
2021/08/12 12:10:31;;;;;;;2.30;1.60;;;31.00;79.60;;;;;;4985843;28;20262;-77
2021/08/12 12:13:16;;;;;;;2.42;1.80;;;31.10;79.00;;;;;;4986615;28;20214;-77
2021/08/12 12:15:44;;;;;;;2.17;1.30;;;31.40;80.10;;;;;;4986490;28;20226;-77
2021/08/12 12:18:12;;;;;;;2.28;2.08;;;31.40;77.60;;;;;;4984998;28;20236;-77
2021/08/12 12:20:40;;;;;;;3.60;1.80;;;31.60;75.00;;;;;;4985074;28;20634;-77
2021/08/12 12:23:10;;;;;;;2.97;1.83;;;31.70;75.10;;;;;;5001306;28;20196;-77
2021/08/12 12:25:38;;;;;;;2.08;1.77;;;31.70;76.00;;;;;;4985400;28;20188;-77
2021/08/12 12:28:05;;;;;;;2.22;2.03;;;31.20;74.60;;;;;;4986363;28;20744;-77
2021/08/12 12:30:32;;;;;;;2.30;1.88;;;31.30;75.00;;;;;;4986079;28;20291;-78
2021/08/12 12:33:04;;;;;;;1.88;1.67;;;31.00;75.60;;;;;;4987504;28;20389;-78
2021/08/12 12:35:33;;;;;;;2.42;1.90;;;31.00;75.90;;;;;;4986138;28;20235;-77
2021/08/12 12:38:00;;;;;;;2.10;1.83;;;31.10;78.00;;;;;;4987427;28;20573;-78
2021/08/12 12:40:31;;;;;;;3.30;1.83;;;31.20;76.90;;;;;;4988368;28;20943;-77
2021/08/12 12:42:58;;;;;;;2.90;1.77;;;31.50;78.10;;;;;;4989471;28;20190;-79
2021/08/12 12:45:24;;;;;;;2.33;2.00;;;31.50;76.50;;;;;;4989821;28;20180;-77
2021/08/12 12:47:50;;;;;;;2.00;1.70;;;31.60;77.10;;;;;;4989623;28;20628;-79
2021/08/12 12:50:23;;;;;;;2.40;1.88;;;31.40;75.50;;;;;;4989839;28;20196;-77
2021/08/12 12:52:54;;;;;;;2.40;2.05;;;31.30;73.60;;;;;;4987282;28;20208;-78